VHWTF UIUU-UIBB
Flight info
| Callsign | VHWTF |
|---|---|
| Flight time | 1h 4m |
| Altitude | 40000 |
| Route | TATUR1B TATUR A807 USONA B155 IKT A815 GIMED GIMED6B |
| Aircraft | CL60/M-SADE3FGHIJ3J4J7P2RWXY/HB1D1 |
Departure
| Time | 2026-05-08 00:21 |
|---|---|
| Airport | Baikal International Airport (UIUU) |
Arrival
| Time | 2026-05-08 01:25 |
|---|---|
| Airport | Bratsk Airport (UIBB) |
| Time | Latitude | Longitude | Altitude | Speed | Heading |
|---|---|---|---|---|---|
| 2026-05-07 23:49 | 51.80533 | 107.43790 | 1695 ft | 0 kts | 171° |
| 2026-05-08 00:15 | 51.80531 | 107.43791 | 1696 ft | 2 kts | 170° |
| 2026-05-08 00:15 | 51.80511 | 107.43797 | 1696 ft | 3 kts | 156° |
| 2026-05-08 00:16 | 51.80511 | 107.43850 | 1696 ft | 8 kts | 31° |
| 2026-05-08 00:16 | 51.80574 | 107.43896 | 1696 ft | 11 kts | 24° |
| 2026-05-08 00:16 | 51.80665 | 107.43918 | 1696 ft | 17 kts | 350° |
| 2026-05-08 00:16 | 51.80767 | 107.43859 | 1696 ft | 15 kts | 317° |
| 2026-05-08 00:17 | 51.80767 | 107.43734 | 1695 ft | 12 kts | 247° |
| 2026-05-08 00:17 | 51.80744 | 107.43579 | 1695 ft | 17 kts | 258° |
| 2026-05-08 00:17 | 51.80716 | 107.43362 | 1695 ft | 21 kts | 257° |
| 2026-05-08 00:17 | 51.80683 | 107.43117 | 1695 ft | 23 kts | 257° |
| 2026-05-08 00:18 | 51.80648 | 107.42849 | 1695 ft | 25 kts | 259° |
| 2026-05-08 00:18 | 51.80612 | 107.42568 | 1695 ft | 24 kts | 257° |
| 2026-05-08 00:18 | 51.80576 | 107.42302 | 1695 ft | 23 kts | 257° |
| 2026-05-08 00:18 | 51.80544 | 107.42050 | 1695 ft | 23 kts | 258° |
| 2026-05-08 00:19 | 51.80518 | 107.41854 | 1695 ft | 13 kts | 256° |
| 2026-05-08 00:19 | 51.80508 | 107.41708 | 1695 ft | 9 kts | 317° |
| 2026-05-08 00:19 | 51.80558 | 107.41701 | 1695 ft | 0 kts | 351° |
| 2026-05-08 00:19 | 51.80570 | 107.41697 | 1695 ft | 7 kts | 349° |
| 2026-05-08 00:20 | 51.80654 | 107.41674 | 1695 ft | 13 kts | 8° |
| 2026-05-08 00:20 | 51.80684 | 107.41789 | 1695 ft | 13 kts | 78° |
| 2026-05-08 00:20 | 51.80738 | 107.42200 | 1695 ft | 81 kts | 78° |
| 2026-05-08 00:20 | 51.80922 | 107.43621 | 1742 ft | 167 kts | 78° |
| 2026-05-08 00:21 | 51.81182 | 107.45581 | 2531 ft | 191 kts | 77° |
| 2026-05-08 00:21 | 51.81459 | 107.47723 | 3558 ft | 210 kts | 76° |
| 2026-05-08 00:21 | 51.81780 | 107.50139 | 4531 ft | 233 kts | 76° |
| 2026-05-08 00:21 | 51.82117 | 107.52695 | 5878 ft | 242 kts | 77° |
| 2026-05-08 00:22 | 51.82121 | 107.55383 | 7160 ft | 254 kts | 106° |
| 2026-05-08 00:22 | 51.81149 | 107.57704 | 8475 ft | 263 kts | 143° |
| 2026-05-08 00:22 | 51.79483 | 107.58718 | 9856 ft | 267 kts | 177° |
| 2026-05-08 00:22 | 51.77673 | 107.58357 | 11202 ft | 271 kts | 199° |
| 2026-05-08 00:23 | 51.76039 | 107.56942 | 12467 ft | 275 kts | 221° |
| 2026-05-08 00:23 | 51.74855 | 107.54605 | 13719 ft | 276 kts | 244° |
| 2026-05-08 00:23 | 51.74373 | 107.51666 | 14896 ft | 280 kts | 268° |
| 2026-05-08 00:23 | 51.74457 | 107.48540 | 15953 ft | 285 kts | 274° |
| 2026-05-08 00:24 | 51.74588 | 107.45353 | 16945 ft | 291 kts | 273° |
| 2026-05-08 00:24 | 51.74714 | 107.42114 | 17892 ft | 295 kts | 273° |
| 2026-05-08 00:24 | 51.74840 | 107.38818 | 18832 ft | 299 kts | 273° |
| 2026-05-08 00:24 | 51.74967 | 107.35473 | 19742 ft | 303 kts | 273° |
| 2026-05-08 00:25 | 51.75095 | 107.32085 | 20623 ft | 307 kts | 273° |
| 2026-05-08 00:25 | 51.75222 | 107.28654 | 21494 ft | 310 kts | 273° |
| 2026-05-08 00:25 | 51.75348 | 107.25191 | 22364 ft | 313 kts | 273° |
| 2026-05-08 00:25 | 51.75475 | 107.21688 | 23161 ft | 317 kts | 273° |
| 2026-05-08 00:26 | 51.75655 | 107.18153 | 23979 ft | 321 kts | 280° |
| 2026-05-08 00:26 | 51.76365 | 107.14764 | 24806 ft | 325 kts | 297° |
| 2026-05-08 00:26 | 51.77739 | 107.11876 | 25529 ft | 333 kts | 315° |
| 2026-05-08 00:26 | 51.79742 | 107.09836 | 25754 ft | 357 kts | 338° |
| 2026-05-08 00:27 | 51.82192 | 107.08733 | 26025 ft | 374 kts | 343° |
| 2026-05-08 00:27 | 51.84749 | 107.07748 | 26440 ft | 386 kts | 346° |
| 2026-05-08 00:27 | 51.87358 | 107.06440 | 26440 ft | 403 kts | 330° |
| 2026-05-08 00:27 | 51.89643 | 107.03736 | 26449 ft | 417 kts | 317° |
| 2026-05-08 00:28 | 51.91848 | 107.00573 | 26608 ft | 430 kts | 316° |
| 2026-05-08 00:28 | 51.94087 | 106.97352 | 27072 ft | 435 kts | 316° |
| 2026-05-08 00:28 | 51.96344 | 106.94111 | 27618 ft | 437 kts | 316° |
| 2026-05-08 00:28 | 51.98627 | 106.90854 | 28147 ft | 440 kts | 317° |
| 2026-05-08 00:29 | 52.00946 | 106.87586 | 28561 ft | 444 kts | 317° |
| 2026-05-08 00:29 | 52.03308 | 106.84370 | 29026 ft | 447 kts | 318° |
| 2026-05-08 00:29 | 52.05725 | 106.81127 | 29452 ft | 450 kts | 318° |
| 2026-05-08 00:29 | 52.08151 | 106.77871 | 29946 ft | 451 kts | 318° |
| 2026-05-08 00:30 | 52.10570 | 106.74621 | 30457 ft | 452 kts | 318° |
| 2026-05-08 00:30 | 52.12996 | 106.71358 | 30964 ft | 452 kts | 318° |
| 2026-05-08 00:30 | 52.15429 | 106.68084 | 31456 ft | 451 kts | 318° |
| 2026-05-08 00:30 | 52.17838 | 106.64806 | 32003 ft | 447 kts | 316° |
| 2026-05-08 00:31 | 52.20003 | 106.61257 | 32571 ft | 440 kts | 308° |
| 2026-05-08 00:31 | 52.21821 | 106.57319 | 33111 ft | 434 kts | 301° |
| 2026-05-08 00:31 | 52.23285 | 106.53049 | 33598 ft | 429 kts | 294° |
| 2026-05-08 00:31 | 52.24377 | 106.48549 | 34007 ft | 426 kts | 287° |
| 2026-05-08 00:32 | 52.25100 | 106.43848 | 34362 ft | 424 kts | 279° |
| 2026-05-08 00:32 | 52.25441 | 106.39063 | 34682 ft | 423 kts | 273° |
| 2026-05-08 00:32 | 52.25405 | 106.34244 | 35010 ft | 423 kts | 265° |
| 2026-05-08 00:32 | 52.24996 | 106.29467 | 35340 ft | 424 kts | 258° |
| 2026-05-08 00:33 | 52.24230 | 106.24802 | 35626 ft | 425 kts | 252° |
| 2026-05-08 00:33 | 52.23155 | 106.20214 | 35924 ft | 426 kts | 249° |
| 2026-05-08 00:33 | 52.22039 | 106.15726 | 36209 ft | 426 kts | 249° |
| 2026-05-08 00:33 | 52.20927 | 106.11243 | 36510 ft | 426 kts | 249° |
| 2026-05-08 00:34 | 52.19809 | 106.06749 | 36784 ft | 426 kts | 249° |
| 2026-05-08 00:34 | 52.18689 | 106.02252 | 37022 ft | 427 kts | 249° |
| 2026-05-08 00:34 | 52.17560 | 105.97726 | 37226 ft | 428 kts | 249° |
| 2026-05-08 00:34 | 52.16437 | 105.93235 | 37441 ft | 429 kts | 249° |
| 2026-05-08 00:35 | 52.15306 | 105.88725 | 37667 ft | 430 kts | 250° |
| 2026-05-08 00:35 | 52.14155 | 105.84151 | 37873 ft | 430 kts | 250° |
| 2026-05-08 00:35 | 52.13011 | 105.79605 | 38027 ft | 432 kts | 250° |
| 2026-05-08 00:35 | 52.11854 | 105.75021 | 38218 ft | 433 kts | 250° |
| 2026-05-08 00:36 | 52.10700 | 105.70457 | 38409 ft | 434 kts | 250° |
| 2026-05-08 00:36 | 52.09548 | 105.65907 | 38568 ft | 435 kts | 250° |
| 2026-05-08 00:36 | 52.08393 | 105.61346 | 38751 ft | 436 kts | 250° |
| 2026-05-08 00:36 | 52.07232 | 105.56775 | 38940 ft | 436 kts | 250° |
| 2026-05-08 00:37 | 52.06189 | 105.52122 | 39138 ft | 434 kts | 256° |
| 2026-05-08 00:37 | 52.05506 | 105.47334 | 39362 ft | 431 kts | 263° |
| 2026-05-08 00:37 | 52.05199 | 105.42477 | 39537 ft | 430 kts | 270° |
| 2026-05-08 00:38 | 52.05713 | 105.32851 | 39811 ft | 429 kts | 283° |
| 2026-05-08 00:38 | 52.06529 | 105.28183 | 39968 ft | 428 kts | 290° |
| 2026-05-08 00:38 | 52.07579 | 105.23574 | 40050 ft | 430 kts | 291° |
| 2026-05-08 00:39 | 52.09693 | 105.14390 | 40057 ft | 437 kts | 291° |
| 2026-05-08 00:39 | 52.11818 | 105.05107 | 40053 ft | 441 kts | 291° |
| 2026-05-08 00:40 | 52.13948 | 104.95756 | 40048 ft | 442 kts | 291° |
| 2026-05-08 00:40 | 52.16088 | 104.86331 | 40054 ft | 441 kts | 291° |
| 2026-05-08 00:41 | 52.18221 | 104.76894 | 40048 ft | 442 kts | 291° |
| 2026-05-08 00:41 | 52.20331 | 104.67514 | 40053 ft | 442 kts | 291° |
| 2026-05-08 00:42 | 52.22458 | 104.58113 | 40045 ft | 442 kts | 293° |
| 2026-05-08 00:42 | 52.25442 | 104.49319 | 40046 ft | 440 kts | 307° |
| 2026-05-08 00:43 | 52.29629 | 104.41995 | 40045 ft | 440 kts | 320° |
| 2026-05-08 00:43 | 52.34787 | 104.36523 | 40043 ft | 442 kts | 334° |
| 2026-05-08 00:44 | 52.40421 | 104.32465 | 40042 ft | 443 kts | 335° |
| 2026-05-08 00:44 | 52.46105 | 104.28411 | 40041 ft | 443 kts | 335° |
| 2026-05-08 00:45 | 52.51759 | 104.24361 | 40050 ft | 443 kts | 335° |
| 2026-05-08 00:45 | 52.57386 | 104.20321 | 40043 ft | 442 kts | 335° |
| 2026-05-08 00:46 | 52.63010 | 104.16274 | 40041 ft | 442 kts | 335° |
| 2026-05-08 00:46 | 52.68638 | 104.12215 | 40039 ft | 443 kts | 335° |
| 2026-05-08 00:47 | 52.74266 | 104.08144 | 40039 ft | 443 kts | 335° |
| 2026-05-08 00:47 | 52.79905 | 104.04057 | 40030 ft | 444 kts | 335° |
| 2026-05-08 00:48 | 52.85536 | 103.99968 | 40024 ft | 444 kts | 335° |
| 2026-05-08 00:48 | 52.91171 | 103.95864 | 40025 ft | 443 kts | 335° |
| 2026-05-08 00:49 | 52.96776 | 103.91757 | 40026 ft | 442 kts | 335° |
| 2026-05-08 00:49 | 53.02393 | 103.87631 | 40005 ft | 443 kts | 335° |
| 2026-05-08 00:50 | 53.08007 | 103.83499 | 40014 ft | 443 kts | 335° |
| 2026-05-08 00:50 | 53.13633 | 103.79347 | 40005 ft | 444 kts | 335° |
| 2026-05-08 00:51 | 53.19248 | 103.75044 | 40007 ft | 444 kts | 334° |
| 2026-05-08 00:51 | 53.24835 | 103.70676 | 40012 ft | 444 kts | 334° |
| 2026-05-08 00:52 | 53.30411 | 103.66311 | 40008 ft | 443 kts | 334° |
| 2026-05-08 00:52 | 53.35992 | 103.61929 | 40015 ft | 443 kts | 334° |
| 2026-05-08 00:53 | 53.41563 | 103.57536 | 40015 ft | 443 kts | 334° |
| 2026-05-08 00:53 | 53.47135 | 103.53130 | 40007 ft | 444 kts | 334° |
| 2026-05-08 00:54 | 53.52706 | 103.48717 | 40009 ft | 444 kts | 334° |
| 2026-05-08 00:54 | 53.58288 | 103.44300 | 40012 ft | 444 kts | 334° |
| 2026-05-08 00:55 | 53.63859 | 103.39880 | 40012 ft | 444 kts | 334° |
| 2026-05-08 00:55 | 53.69428 | 103.35452 | 40018 ft | 444 kts | 334° |
| 2026-05-08 00:56 | 53.75015 | 103.30996 | 40007 ft | 445 kts | 334° |
| 2026-05-08 00:56 | 53.80621 | 103.26508 | 40013 ft | 445 kts | 334° |
| 2026-05-08 00:57 | 53.86191 | 103.22035 | 39997 ft | 444 kts | 334° |
| 2026-05-08 00:57 | 53.91765 | 103.17545 | 40002 ft | 443 kts | 334° |
| 2026-05-08 00:58 | 53.97313 | 103.13063 | 39999 ft | 444 kts | 334° |
| 2026-05-08 00:58 | 54.02885 | 103.08549 | 39998 ft | 444 kts | 334° |
| 2026-05-08 00:59 | 54.08444 | 103.04032 | 39999 ft | 445 kts | 334° |
| 2026-05-08 00:59 | 54.14050 | 102.99463 | 39999 ft | 445 kts | 334° |
| 2026-05-08 01:00 | 54.19621 | 102.94905 | 39988 ft | 445 kts | 334° |
| 2026-05-08 01:00 | 54.25164 | 102.90347 | 39998 ft | 444 kts | 334° |
| 2026-05-08 01:01 | 54.30719 | 102.85766 | 39990 ft | 444 kts | 333° |
| 2026-05-08 01:01 | 54.36255 | 102.81186 | 39975 ft | 444 kts | 333° |
| 2026-05-08 01:02 | 54.41805 | 102.76588 | 39981 ft | 444 kts | 333° |
| 2026-05-08 01:02 | 54.47341 | 102.71993 | 39980 ft | 444 kts | 334° |
| 2026-05-08 01:03 | 54.52879 | 102.67374 | 39975 ft | 443 kts | 333° |
| 2026-05-08 01:03 | 54.58401 | 102.62750 | 39979 ft | 443 kts | 333° |
| 2026-05-08 01:04 | 54.63922 | 102.58117 | 39845 ft | 446 kts | 333° |
| 2026-05-08 01:04 | 54.66710 | 102.55772 | 39326 ft | 447 kts | 333° |
| 2026-05-08 01:04 | 54.69480 | 102.53441 | 38786 ft | 443 kts | 333° |
| 2026-05-08 01:04 | 54.72228 | 102.51129 | 38217 ft | 441 kts | 333° |
| 2026-05-08 01:05 | 54.74974 | 102.48813 | 37622 ft | 438 kts | 333° |
| 2026-05-08 01:05 | 54.77701 | 102.46509 | 37062 ft | 436 kts | 333° |
| 2026-05-08 01:05 | 54.80410 | 102.44215 | 36477 ft | 435 kts | 333° |
| 2026-05-08 01:05 | 54.83102 | 102.41928 | 35899 ft | 432 kts | 333° |
| 2026-05-08 01:06 | 54.85781 | 102.39649 | 35336 ft | 430 kts | 333° |
| 2026-05-08 01:06 | 54.88446 | 102.37380 | 34762 ft | 428 kts | 334° |
| 2026-05-08 01:06 | 54.91097 | 102.35122 | 34224 ft | 427 kts | 334° |
| 2026-05-08 01:06 | 54.93760 | 102.32849 | 33630 ft | 430 kts | 333° |
| 2026-05-08 01:07 | 54.96450 | 102.30547 | 33059 ft | 431 kts | 333° |
| 2026-05-08 01:07 | 54.99139 | 102.28243 | 32490 ft | 433 kts | 333° |
| 2026-05-08 01:07 | 55.01837 | 102.25928 | 31921 ft | 435 kts | 333° |
| 2026-05-08 01:07 | 55.04539 | 102.23606 | 31348 ft | 437 kts | 333° |
| 2026-05-08 01:08 | 55.07269 | 102.21256 | 30756 ft | 438 kts | 333° |
| 2026-05-08 01:08 | 55.10007 | 102.18897 | 30176 ft | 439 kts | 333° |
| 2026-05-08 01:08 | 55.12772 | 102.16511 | 29596 ft | 441 kts | 333° |
| 2026-05-08 01:08 | 55.15509 | 102.14145 | 29022 ft | 441 kts | 333° |
| 2026-05-08 01:09 | 55.18238 | 102.11782 | 28445 ft | 439 kts | 333° |
| 2026-05-08 01:09 | 55.20953 | 102.09429 | 27867 ft | 435 kts | 333° |
| 2026-05-08 01:09 | 55.23642 | 102.07095 | 27298 ft | 431 kts | 333° |
| 2026-05-08 01:09 | 55.26298 | 102.04786 | 26731 ft | 427 kts | 333° |
| 2026-05-08 01:10 | 55.28934 | 102.02493 | 26163 ft | 423 kts | 333° |
| 2026-05-08 01:10 | 55.31542 | 102.00220 | 25610 ft | 419 kts | 333° |
| 2026-05-08 01:10 | 55.34142 | 101.97951 | 25053 ft | 415 kts | 333° |
| 2026-05-08 01:10 | 55.36711 | 101.95705 | 24507 ft | 411 kts | 333° |
| 2026-05-08 01:11 | 55.39251 | 101.93481 | 23967 ft | 407 kts | 333° |
| 2026-05-08 01:11 | 55.41785 | 101.91359 | 23425 ft | 403 kts | 338° |
| 2026-05-08 01:11 | 55.44483 | 101.90200 | 22902 ft | 401 kts | 354° |
| 2026-05-08 01:11 | 55.47251 | 101.90189 | 22343 ft | 399 kts | 1° |
| 2026-05-08 01:12 | 55.50002 | 101.90354 | 21811 ft | 395 kts | 0° |
| 2026-05-08 01:12 | 55.52729 | 101.90508 | 21291 ft | 392 kts | 1° |
| 2026-05-08 01:12 | 55.55433 | 101.90663 | 20775 ft | 389 kts | 1° |
| 2026-05-08 01:12 | 55.58118 | 101.90819 | 20263 ft | 386 kts | 1° |
| 2026-05-08 01:13 | 55.60777 | 101.90975 | 19755 ft | 383 kts | 1° |
| 2026-05-08 01:13 | 55.63416 | 101.91131 | 19253 ft | 380 kts | 1° |
| 2026-05-08 01:13 | 55.66032 | 101.91287 | 18751 ft | 376 kts | 1° |
| 2026-05-08 01:13 | 55.68622 | 101.91443 | 18258 ft | 372 kts | 1° |
| 2026-05-08 01:14 | 55.71185 | 101.91597 | 17772 ft | 369 kts | 1° |
| 2026-05-08 01:14 | 55.73725 | 101.91752 | 17326 ft | 366 kts | 1° |
| 2026-05-08 01:14 | 55.76250 | 101.91908 | 16834 ft | 363 kts | 1° |
| 2026-05-08 01:14 | 55.78753 | 101.92064 | 16360 ft | 361 kts | 1° |
| 2026-05-08 01:15 | 55.81238 | 101.92218 | 15880 ft | 357 kts | 1° |
| 2026-05-08 01:15 | 55.83718 | 101.92381 | 15351 ft | 351 kts | 1° |
| 2026-05-08 01:15 | 55.86127 | 101.92539 | 14734 ft | 344 kts | 1° |
| 2026-05-08 01:15 | 55.88491 | 101.92694 | 14074 ft | 339 kts | 1° |
| 2026-05-08 01:16 | 55.90809 | 101.92843 | 13551 ft | 330 kts | 2° |
| 2026-05-08 01:16 | 55.93070 | 101.92987 | 13005 ft | 323 kts | 2° |
| 2026-05-08 01:16 | 55.95286 | 101.93129 | 12473 ft | 317 kts | 2° |
| 2026-05-08 01:16 | 55.97454 | 101.93269 | 11951 ft | 311 kts | 1° |
| 2026-05-08 01:17 | 55.99586 | 101.93406 | 11444 ft | 305 kts | 1° |
| 2026-05-08 01:17 | 56.01694 | 101.93542 | 10944 ft | 299 kts | 1° |
| 2026-05-08 01:17 | 56.03746 | 101.93675 | 10453 ft | 295 kts | 1° |
| 2026-05-08 01:17 | 56.05772 | 101.93807 | 9968 ft | 290 kts | 1° |
| 2026-05-08 01:18 | 56.07764 | 101.93936 | 9496 ft | 286 kts | 1° |
| 2026-05-08 01:18 | 56.09730 | 101.94064 | 9027 ft | 282 kts | 1° |
| 2026-05-08 01:18 | 56.11678 | 101.94199 | 8567 ft | 278 kts | 2° |
| 2026-05-08 01:18 | 56.13593 | 101.94340 | 8114 ft | 275 kts | 2° |
| 2026-05-08 01:19 | 56.15492 | 101.94478 | 7667 ft | 272 kts | 2° |
| 2026-05-08 01:19 | 56.17363 | 101.94611 | 7221 ft | 268 kts | 2° |
| 2026-05-08 01:19 | 56.19208 | 101.94820 | 6776 ft | 265 kts | 9° |
| 2026-05-08 01:19 | 56.20921 | 101.95914 | 6332 ft | 262 kts | 24° |
| 2026-05-08 01:20 | 56.22556 | 101.97299 | 5905 ft | 259 kts | 24° |
| 2026-05-08 01:20 | 56.24166 | 101.98648 | 5469 ft | 252 kts | 24° |
| 2026-05-08 01:20 | 56.25756 | 101.99796 | 5135 ft | 241 kts | 13° |
| 2026-05-08 01:20 | 56.27377 | 102.00125 | 4843 ft | 230 kts | 354° |
| 2026-05-08 01:21 | 56.28846 | 101.99247 | 4597 ft | 221 kts | 327° |
| 2026-05-08 01:21 | 56.29812 | 101.97213 | 4409 ft | 210 kts | 302° |
| 2026-05-08 01:21 | 56.30480 | 101.94947 | 4183 ft | 204 kts | 300° |
| 2026-05-08 01:21 | 56.31116 | 101.92694 | 3933 ft | 198 kts | 298° |
| 2026-05-08 01:22 | 56.31702 | 101.90499 | 3684 ft | 191 kts | 298° |
| 2026-05-08 01:22 | 56.32241 | 101.88435 | 3389 ft | 172 kts | 298° |
| 2026-05-08 01:22 | 56.32708 | 101.86631 | 3311 ft | 152 kts | 298° |
| 2026-05-08 01:22 | 56.33162 | 101.84893 | 3150 ft | 153 kts | 298° |
| 2026-05-08 01:23 | 56.33603 | 101.83202 | 2981 ft | 149 kts | 297° |
| 2026-05-08 01:23 | 56.34032 | 101.81551 | 2777 ft | 141 kts | 297° |
| 2026-05-08 01:23 | 56.34436 | 101.79989 | 2590 ft | 136 kts | 296° |
| 2026-05-08 01:23 | 56.34832 | 101.78461 | 2406 ft | 134 kts | 296° |
| 2026-05-08 01:24 | 56.35190 | 101.77077 | 2245 ft | 133 kts | 296° |
| 2026-05-08 01:24 | 56.35580 | 101.75570 | 2060 ft | 133 kts | 296° |
| 2026-05-08 01:24 | 56.36002 | 101.74099 | 1886 ft | 132 kts | 296° |
| 2026-05-08 01:24 | 56.36391 | 101.72599 | 1710 ft | 132 kts | 294° |
| 2026-05-08 01:25 | 56.36763 | 101.71126 | 1621 ft | 119 kts | 294° |
| 2026-05-08 01:25 | 56.37052 | 101.69968 | 1620 ft | 73 kts | 294° |
| 2026-05-08 01:25 | 56.37210 | 101.69353 | 1620 ft | 38 kts | 291° |
| 2026-05-08 01:25 | 56.37238 | 101.69104 | 1620 ft | 11 kts | 240° |
| 2026-05-08 01:26 | 56.37173 | 101.69007 | 1620 ft | 14 kts | 198° |
| 2026-05-08 01:26 | 56.37080 | 101.69021 | 1620 ft | 14 kts | 158° |
| 2026-05-08 01:26 | 56.37000 | 101.69143 | 1620 ft | 16 kts | 109° |
| 2026-05-08 01:26 | 56.36954 | 101.69360 | 1619 ft | 20 kts | 116° |
| 2026-05-08 01:27 | 56.36894 | 101.69596 | 1619 ft | 21 kts | 115° |
| 2026-05-08 01:27 | 56.36850 | 101.69775 | 1619 ft | 13 kts | 115° |
| 2026-05-08 01:27 | 56.36810 | 101.69940 | 1619 ft | 13 kts | 116° |
| 2026-05-08 01:27 | 56.36795 | 101.70084 | 1619 ft | 10 kts | 32° |
| 2026-05-08 01:28 | 56.36800 | 101.70089 | 1619 ft | 0 kts | 27° |